sensor_id;sensor_type;location;lat;lon;timestamp;temperature;humidity
56103;DHT22;41970;48.774;9.280;2023-06-04T00:00:48;16.20;91.40
56103;DHT22;41970;48.774;9.280;2023-06-04T00:03:13;16.20;91.60
56103;DHT22;41970;48.774;9.280;2023-06-04T00:05:39;16.20;91.60
56103;DHT22;41970;48.774;9.280;2023-06-04T00:08:05;16.10;91.40
56103;DHT22;41970;48.774;9.280;2023-06-04T00:10:31;16.10;91.20
56103;DHT22;41970;48.774;9.280;2023-06-04T00:12:57;16.10;91.40
56103;DHT22;41970;48.774;9.280;2023-06-04T00:15:23;16.10;91.30
56103;DHT22;41970;48.774;9.280;2023-06-04T00:17:49;16.00;91.20
56103;DHT22;41970;48.774;9.280;2023-06-04T00:20:16;16.00;91.30
56103;DHT22;41970;48.774;9.280;2023-06-04T00:22:42;16.00;91.30
56103;DHT22;41970;48.774;9.280;2023-06-04T00:25:09;16.00;91.30
56103;DHT22;41970;48.774;9.280;2023-06-04T00:27:35;16.00;91.30
56103;DHT22;41970;48.774;9.280;2023-06-04T00:30:01;16.00;91.20
56103;DHT22;41970;48.774;9.280;2023-06-04T00:32:27;16.00;91.30
56103;DHT22;41970;48.774;9.280;2023-06-04T00:34:54;16.00;91.30
56103;DHT22;41970;48.774;9.280;2023-06-04T00:37:22;16.00;91.20
56103;DHT22;41970;48.774;9.280;2023-06-04T00:39:47;16.10;91.10
56103;DHT22;41970;48.774;9.280;2023-06-04T00:42:13;16.10;90.90
56103;DHT22;41970;48.774;9.280;2023-06-04T00:44:39;16.00;91.00
56103;DHT22;41970;48.774;9.280;2023-06-04T00:47:14;16.00;91.10
56103;DHT22;41970;48.774;9.280;2023-06-04T00:49:40;15.90;91.10
56103;DHT22;41970;48.774;9.280;2023-06-04T00:52:08;15.80;91.10
56103;DHT22;41970;48.774;9.280;2023-06-04T00:54:35;15.80;91.10
56103;DHT22;41970;48.774;9.280;2023-06-04T00:57:01;15.80;91.20
56103;DHT22;41970;48.774;9.280;2023-06-04T00:59:27;15.80;91.20
56103;DHT22;41970;48.774;9.280;2023-06-04T01:02:03;15.80;91.00
56103;DHT22;41970;48.774;9.280;2023-06-04T01:07:21;15.70;90.80
56103;DHT22;41970;48.774;9.280;2023-06-04T01:09:48;15.70;90.80
56103;DHT22;41970;48.774;9.280;2023-06-04T01:12:14;15.70;90.90
56103;DHT22;41970;48.774;9.280;2023-06-04T01:14:41;15.70;90.80
56103;DHT22;41970;48.774;9.280;2023-06-04T01:17:35;15.70;90.80
56103;DHT22;41970;48.774;9.280;2023-06-04T01:25:41;15.50;91.00
56103;DHT22;41970;48.774;9.280;2023-06-04T01:28:11;15.60;91.00
56103;DHT22;41970;48.774;9.280;2023-06-04T01:30:39;15.70;90.80
56103;DHT22;41970;48.774;9.280;2023-06-04T01:33:10;15.60;90.60
56103;DHT22;41970;48.774;9.280;2023-06-04T01:35:36;15.60;90.60
56103;DHT22;41970;48.774;9.280;2023-06-04T01:38:02;15.60;90.60
56103;DHT22;41970;48.774;9.280;2023-06-04T01:40:28;15.60;90.90
56103;DHT22;41970;48.774;9.280;2023-06-04T01:42:55;15.60;90.80
56103;DHT22;41970;48.774;9.280;2023-06-04T01:45:27;15.60;90.60
56103;DHT22;41970;48.774;9.280;2023-06-04T01:47:53;15.50;90.70
56103;DHT22;41970;48.774;9.280;2023-06-04T01:50:20;15.50;90.80
56103;DHT22;41970;48.774;9.280;2023-06-04T01:52:46;15.50;90.60
56103;DHT22;41970;48.774;9.280;2023-06-04T01:55:14;15.50;90.80
56103;DHT22;41970;48.774;9.280;2023-06-04T01:57:41;15.40;90.80
56103;DHT22;41970;48.774;9.280;2023-06-04T02:00:08;15.40;90.20
56103;DHT22;41970;48.774;9.280;2023-06-04T02:02:36;15.30;90.60
56103;DHT22;41970;48.774;9.280;2023-06-04T02:05:05;15.30;90.80
56103;DHT22;41970;48.774;9.280;2023-06-04T02:07:39;15.40;90.70
56103;DHT22;41970;48.774;9.280;2023-06-04T02:10:12;15.40;90.70
56103;DHT22;41970;48.774;9.280;2023-06-04T02:12:51;15.30;90.70
56103;DHT22;41970;48.774;9.280;2023-06-04T02:15:17;15.30;90.90
56103;DHT22;41970;48.774;9.280;2023-06-04T02:17:43;15.20;91.00
56103;DHT22;41970;48.774;9.280;2023-06-04T02:20:11;15.20;91.00
56103;DHT22;41970;48.774;9.280;2023-06-04T02:22:37;15.20;91.10
56103;DHT22;41970;48.774;9.280;2023-06-04T02:25:04;15.30;91.00
56103;DHT22;41970;48.774;9.280;2023-06-04T02:27:31;15.30;91.00
56103;DHT22;41970;48.774;9.280;2023-06-04T02:29:56;15.20;91.00
56103;DHT22;41970;48.774;9.280;2023-06-04T02:32:22;15.10;91.20
56103;DHT22;41970;48.774;9.280;2023-06-04T02:34:48;15.10;90.90
56103;DHT22;41970;48.774;9.280;2023-06-04T02:37:14;15.20;91.00
56103;DHT22;41970;48.774;9.280;2023-06-04T02:39:40;15.10;90.90
56103;DHT22;41970;48.774;9.280;2023-06-04T02:42:06;15.10;90.70
56103;DHT22;41970;48.774;9.280;2023-06-04T02:44:32;15.00;90.10
56103;DHT22;41970;48.774;9.280;2023-06-04T02:46:58;14.90;89.50
56103;DHT22;41970;48.774;9.280;2023-06-04T02:49:24;14.70;90.00
56103;DHT22;41970;48.774;9.280;2023-06-04T02:51:50;14.70;90.10
56103;DHT22;41970;48.774;9.280;2023-06-04T02:54:16;14.60;90.10
56103;DHT22;41970;48.774;9.280;2023-06-04T02:56:42;14.60;90.00
56103;DHT22;41970;48.774;9.280;2023-06-04T02:59:10;14.60;89.10
56103;DHT22;41970;48.774;9.280;2023-06-04T03:01:35;14.70;90.00
56103;DHT22;41970;48.774;9.280;2023-06-04T03:04:01;14.70;90.00
56103;DHT22;41970;48.774;9.280;2023-06-04T03:06:30;14.70;89.90
56103;DHT22;41970;48.774;9.280;2023-06-04T03:08:58;14.70;89.70
56103;DHT22;41970;48.774;9.280;2023-06-04T03:11:24;14.60;89.80
56103;DHT22;41970;48.774;9.280;2023-06-04T03:13:50;14.60;90.10
56103;DHT22;41970;48.774;9.280;2023-06-04T03:16:17;14.60;90.10
56103;DHT22;41970;48.774;9.280;2023-06-04T03:18:43;14.70;90.00
56103;DHT22;41970;48.774;9.280;2023-06-04T03:21:10;14.70;90.00
56103;DHT22;41970;48.774;9.280;2023-06-04T03:23:37;14.70;90.00
56103;DHT22;41970;48.774;9.280;2023-06-04T03:26:04;14.70;90.10
56103;DHT22;41970;48.774;9.280;2023-06-04T03:28:31;14.70;90.20
56103;DHT22;41970;48.774;9.280;2023-06-04T03:30:57;14.60;89.90
56103;DHT22;41970;48.774;9.280;2023-06-04T03:33:23;14.50;90.60
56103;DHT22;41970;48.774;9.280;2023-06-04T03:35:50;14.60;90.20
56103;DHT22;41970;48.774;9.280;2023-06-04T03:38:16;14.60;90.10
56103;DHT22;41970;48.774;9.280;2023-06-04T03:40:42;14.60;90.10
56103;DHT22;41970;48.774;9.280;2023-06-04T03:43:09;14.60;90.10
56103;DHT22;41970;48.774;9.280;2023-06-04T03:45:35;14.50;90.10
56103;DHT22;41970;48.774;9.280;2023-06-04T03:48:01;14.50;90.20
56103;DHT22;41970;48.774;9.280;2023-06-04T03:50:26;14.50;90.30
56103;DHT22;41970;48.774;9.280;2023-06-04T03:52:53;14.40;89.80
56103;DHT22;41970;48.774;9.280;2023-06-04T03:55:19;14.40;90.00
56103;DHT22;41970;48.774;9.280;2023-06-04T03:57:45;14.40;89.90
56103;DHT22;41970;48.774;9.280;2023-06-04T04:00:11;14.50;90.10
56103;DHT22;41970;48.774;9.280;2023-06-04T04:02:39;14.50;90.00
56103;DHT22;41970;48.774;9.280;2023-06-04T04:05:05;14.60;89.40
56103;DHT22;41970;48.774;9.280;2023-06-04T04:07:31;14.60;89.90
56103;DHT22;41970;48.774;9.280;2023-06-04T04:09:57;14.60;90.10
56103;DHT22;41970;48.774;9.280;2023-06-04T04:12:23;14.50;90.00
56103;DHT22;41970;48.774;9.280;2023-06-04T04:14:49;14.50;89.60
56103;DHT22;41970;48.774;9.280;2023-06-04T04:17:15;14.40;90.10
56103;DHT22;41970;48.774;9.280;2023-06-04T04:19:41;14.30;90.30
56103;DHT22;41970;48.774;9.280;2023-06-04T04:22:07;14.30;90.20
56103;DHT22;41970;48.774;9.280;2023-06-04T04:24:34;14.30;90.20
56103;DHT22;41970;48.774;9.280;2023-06-04T04:27:03;14.40;90.50
56103;DHT22;41970;48.774;9.280;2023-06-04T04:29:29;14.40;90.40
56103;DHT22;41970;48.774;9.280;2023-06-04T04:31:59;14.50;90.40
56103;DHT22;41970;48.774;9.280;2023-06-04T04:34:54;14.50;90.40
56103;DHT22;41970;48.774;9.280;2023-06-04T04:37:20;14.50;90.50
56103;DHT22;41970;48.774;9.280;2023-06-04T04:39:47;14.50;90.50
56103;DHT22;41970;48.774;9.280;2023-06-04T04:42:14;14.60;90.50
56103;DHT22;41970;48.774;9.280;2023-06-04T04:44:40;14.60;90.50
56103;DHT22;41970;48.774;9.280;2023-06-04T04:47:05;14.70;90.70
56103;DHT22;41970;48.774;9.280;2023-06-04T04:49:31;14.70;90.60
56103;DHT22;41970;48.774;9.280;2023-06-04T04:51:57;14.80;90.60
56103;DHT22;41970;48.774;9.280;2023-06-04T04:54:22;15.00;90.50
56103;DHT22;41970;48.774;9.280;2023-06-04T04:56:48;15.00;90.40
56103;DHT22;41970;48.774;9.280;2023-06-04T04:59:14;15.10;90.30
56103;DHT22;41970;48.774;9.280;2023-06-04T05:01:39;15.20;90.50
56103;DHT22;41970;48.774;9.280;2023-06-04T05:04:05;15.20;90.10
56103;DHT22;41970;48.774;9.280;2023-06-04T05:06:31;15.20;89.80
56103;DHT22;41970;48.774;9.280;2023-06-04T05:08:57;15.20;90.00
56103;DHT22;41970;48.774;9.280;2023-06-04T05:11:22;15.20;90.10
56103;DHT22;41970;48.774;9.280;2023-06-04T05:13:48;15.30;90.30
56103;DHT22;41970;48.774;9.280;2023-06-04T05:16:14;15.40;90.30
56103;DHT22;41970;48.774;9.280;2023-06-04T05:18:40;15.50;90.30
56103;DHT22;41970;48.774;9.280;2023-06-04T05:21:07;15.60;90.20
56103;DHT22;41970;48.774;9.280;2023-06-04T05:23:33;15.70;89.60
56103;DHT22;41970;48.774;9.280;2023-06-04T05:26:02;15.70;89.30
56103;DHT22;41970;48.774;9.280;2023-06-04T05:28:28;15.80;87.80
56103;DHT22;41970;48.774;9.280;2023-06-04T05:30:55;15.80;87.30
56103;DHT22;41970;48.774;9.280;2023-06-04T05:33:26;16.00;86.80
56103;DHT22;41970;48.774;9.280;2023-06-04T05:35:52;16.00;87.60
56103;DHT22;41970;48.774;9.280;2023-06-04T05:38:18;16.20;86.70
56103;DHT22;41970;48.774;9.280;2023-06-04T05:40:47;16.30;85.70
56103;DHT22;41970;48.774;9.280;2023-06-04T05:43:13;16.40;85.90
56103;DHT22;41970;48.774;9.280;2023-06-04T05:45:39;16.50;83.00
56103;DHT22;41970;48.774;9.280;2023-06-04T05:48:05;16.60;83.50
56103;DHT22;41970;48.774;9.280;2023-06-04T05:50:31;16.80;83.50
56103;DHT22;41970;48.774;9.280;2023-06-04T05:52:57;16.80;82.50
56103;DHT22;41970;48.774;9.280;2023-06-04T05:55:23;17.00;81.80
56103;DHT22;41970;48.774;9.280;2023-06-04T05:57:50;17.10;81.90
56103;DHT22;41970;48.774;9.280;2023-06-04T06:00:18;17.10;82.00
56103;DHT22;41970;48.774;9.280;2023-06-04T06:02:44;17.10;80.00
56103;DHT22;41970;48.774;9.280;2023-06-04T06:05:11;17.20;79.40
56103;DHT22;41970;48.774;9.280;2023-06-04T06:07:36;17.30;78.70
56103;DHT22;41970;48.774;9.280;2023-06-04T06:10:03;17.40;79.70
56103;DHT22;41970;48.774;9.280;2023-06-04T06:12:30;17.60;79.20
56103;DHT22;41970;48.774;9.280;2023-06-04T06:14:56;17.60;80.10
56103;DHT22;41970;48.774;9.280;2023-06-04T06:17:21;17.60;79.40
56103;DHT22;41970;48.774;9.280;2023-06-04T06:19:48;17.60;78.20
56103;DHT22;41970;48.774;9.280;2023-06-04T06:22:13;17.70;80.00
56103;DHT22;41970;48.774;9.280;2023-06-04T06:24:39;17.80;79.80
56103;DHT22;41970;48.774;9.280;2023-06-04T06:27:05;17.90;79.10
56103;DHT22;41970;48.774;9.280;2023-06-04T06:29:31;17.90;78.90
56103;DHT22;41970;48.774;9.280;2023-06-04T06:31:57;17.80;78.20
56103;DHT22;41970;48.774;9.280;2023-06-04T06:34:23;17.70;79.40
56103;DHT22;41970;48.774;9.280;2023-06-04T06:36:49;17.80;79.40
56103;DHT22;41970;48.774;9.280;2023-06-04T06:39:15;17.80;79.90
56103;DHT22;41970;48.774;9.280;2023-06-04T06:41:41;18.10;78.40
56103;DHT22;41970;48.774;9.280;2023-06-04T06:44:07;18.20;78.60
56103;DHT22;41970;48.774;9.280;2023-06-04T06:46:33;18.30;79.00
56103;DHT22;41970;48.774;9.280;2023-06-04T06:48:59;18.50;79.00
56103;DHT22;41970;48.774;9.280;2023-06-04T06:51:25;18.80;78.60
56103;DHT22;41970;48.774;9.280;2023-06-04T06:53:50;18.90;78.00
56103;DHT22;41970;48.774;9.280;2023-06-04T06:56:16;19.10;77.60
56103;DHT22;41970;48.774;9.280;2023-06-04T06:58:46;19.20;76.30
56103;DHT22;41970;48.774;9.280;2023-06-04T07:01:12;19.10;76.20
56103;DHT22;41970;48.774;9.280;2023-06-04T07:03:38;19.20;76.30
56103;DHT22;41970;48.774;9.280;2023-06-04T07:06:07;19.30;77.00
56103;DHT22;41970;48.774;9.280;2023-06-04T07:08:33;19.70;77.60
56103;DHT22;41970;48.774;9.280;2023-06-04T07:11:01;20.00;75.50
56103;DHT22;41970;48.774;9.280;2023-06-04T07:13:27;20.10;75.70
56103;DHT22;41970;48.774;9.280;2023-06-04T07:15:53;19.90;75.60
56103;DHT22;41970;48.774;9.280;2023-06-04T07:18:19;20.00;75.80
56103;DHT22;41970;48.774;9.280;2023-06-04T07:20:45;20.40;75.10
56103;DHT22;41970;48.774;9.280;2023-06-04T07:23:11;20.80;76.20
56103;DHT22;41970;48.774;9.280;2023-06-04T07:25:37;21.00;75.00
56103;DHT22;41970;48.774;9.280;2023-06-04T07:28:03;21.10;74.70
56103;DHT22;41970;48.774;9.280;2023-06-04T07:30:31;21.40;74.40
56103;DHT22;41970;48.774;9.280;2023-06-04T07:33:00;21.60;73.30
56103;DHT22;41970;48.774;9.280;2023-06-04T07:35:25;21.90;72.70
56103;DHT22;41970;48.774;9.280;2023-06-04T07:37:51;22.10;73.60
56103;DHT22;41970;48.774;9.280;2023-06-04T07:40:17;22.40;72.00
56103;DHT22;41970;48.774;9.280;2023-06-04T07:42:45;22.50;72.80
56103;DHT22;41970;48.774;9.280;2023-06-04T07:45:11;22.60;72.40
56103;DHT22;41970;48.774;9.280;2023-06-04T07:47:37;22.80;72.30
56103;DHT22;41970;48.774;9.280;2023-06-04T07:50:06;23.00;71.60
56103;DHT22;41970;48.774;9.280;2023-06-04T07:52:32;23.00;70.30
56103;DHT22;41970;48.774;9.280;2023-06-04T07:54:59;23.10;70.60
56103;DHT22;41970;48.774;9.280;2023-06-04T07:57:25;23.10;71.10
56103;DHT22;41970;48.774;9.280;2023-06-04T07:59:51;23.50;70.00
56103;DHT22;41970;48.774;9.280;2023-06-04T08:02:17;23.60;70.20
56103;DHT22;41970;48.774;9.280;2023-06-04T08:04:43;23.70;69.70
56103;DHT22;41970;48.774;9.280;2023-06-04T08:07:09;24.10;71.20
56103;DHT22;41970;48.774;9.280;2023-06-04T08:09:35;24.40;68.20
56103;DHT22;41970;48.774;9.280;2023-06-04T08:12:01;24.60;69.10
56103;DHT22;41970;48.774;9.280;2023-06-04T08:14:27;24.40;68.40
56103;DHT22;41970;48.774;9.280;2023-06-04T08:16:53;24.40;68.40
56103;DHT22;41970;48.774;9.280;2023-06-04T08:19:19;24.30;69.10
56103;DHT22;41970;48.774;9.280;2023-06-04T08:21:45;24.50;68.00
56103;DHT22;41970;48.774;9.280;2023-06-04T08:24:13;24.80;68.10
56103;DHT22;41970;48.774;9.280;2023-06-04T08:26:39;24.90;67.30
56103;DHT22;41970;48.774;9.280;2023-06-04T08:29:05;24.40;65.90
56103;DHT22;41970;48.774;9.280;2023-06-04T08:31:32;23.90;67.40
56103;DHT22;41970;48.774;9.280;2023-06-04T08:33:57;24.00;67.90
56103;DHT22;41970;48.774;9.280;2023-06-04T08:36:23;24.30;68.10
56103;DHT22;41970;48.774;9.280;2023-06-04T08:38:49;24.30;66.70
56103;DHT22;41970;48.774;9.280;2023-06-04T08:41:19;24.70;66.50
56103;DHT22;41970;48.774;9.280;2023-06-04T08:43:46;24.50;63.40
56103;DHT22;41970;48.774;9.280;2023-06-04T08:46:15;24.10;66.60
56103;DHT22;41970;48.774;9.280;2023-06-04T08:48:43;23.80;66.40
56103;DHT22;41970;48.774;9.280;2023-06-04T08:51:11;23.90;67.70
56103;DHT22;41970;48.774;9.280;2023-06-04T08:53:37;23.80;67.00
56103;DHT22;41970;48.774;9.280;2023-06-04T08:56:03;24.00;67.10
56103;DHT22;41970;48.774;9.280;2023-06-04T08:58:32;24.10;67.80
56103;DHT22;41970;48.774;9.280;2023-06-04T09:01:01;24.50;68.30
56103;DHT22;41970;48.774;9.280;2023-06-04T09:03:28;24.80;67.80
56103;DHT22;41970;48.774;9.280;2023-06-04T09:05:58;24.90;65.20
56103;DHT22;41970;48.774;9.280;2023-06-04T09:08:25;24.80;65.80
56103;DHT22;41970;48.774;9.280;2023-06-04T09:10:54;24.80;63.80
56103;DHT22;41970;48.774;9.280;2023-06-04T09:13:22;25.00;64.70
56103;DHT22;41970;48.774;9.280;2023-06-04T09:16:04;25.10;64.40
56103;DHT22;41970;48.774;9.280;2023-06-04T09:18:33;25.20;64.30
56103;DHT22;41970;48.774;9.280;2023-06-04T09:23:28;25.20;63.60
56103;DHT22;41970;48.774;9.280;2023-06-04T09:25:54;25.10;63.30
56103;DHT22;41970;48.774;9.280;2023-06-04T09:28:20;25.00;64.50
56103;DHT22;41970;48.774;9.280;2023-06-04T09:30:55;24.80;63.40
56103;DHT22;41970;48.774;9.280;2023-06-04T09:33:21;24.90;63.00
56103;DHT22;41970;48.774;9.280;2023-06-04T09:35:54;24.70;63.90
56103;DHT22;41970;48.774;9.280;2023-06-04T09:38:20;24.70;62.20
56103;DHT22;41970;48.774;9.280;2023-06-04T09:40:46;24.30;62.70
56103;DHT22;41970;48.774;9.280;2023-06-04T09:43:21;24.50;63.90
56103;DHT22;41970;48.774;9.280;2023-06-04T09:45:48;24.60;62.60
56103;DHT22;41970;48.774;9.280;2023-06-04T09:48:20;24.70;63.20
56103;DHT22;41970;48.774;9.280;2023-06-04T09:50:47;24.70;62.80
56103;DHT22;41970;48.774;9.280;2023-06-04T09:53:18;24.30;63.10
56103;DHT22;41970;48.774;9.280;2023-06-04T09:55:56;24.40;63.60
56103;DHT22;41970;48.774;9.280;2023-06-04T09:58:25;24.40;63.40
56103;DHT22;41970;48.774;9.280;2023-06-04T10:00:53;24.60;64.00
56103;DHT22;41970;48.774;9.280;2023-06-04T10:03:24;24.90;63.70
56103;DHT22;41970;48.774;9.280;2023-06-04T10:05:53;25.10;62.60
56103;DHT22;41970;48.774;9.280;2023-06-04T10:08:22;24.90;60.70
56103;DHT22;41970;48.774;9.280;2023-06-04T10:10:50;24.70;61.70
56103;DHT22;41970;48.774;9.280;2023-06-04T10:13:18;24.80;61.30
56103;DHT22;41970;48.774;9.280;2023-06-04T10:15:48;24.80;59.30
56103;DHT22;41970;48.774;9.280;2023-06-04T10:18:15;24.50;59.90
56103;DHT22;41970;48.774;9.280;2023-06-04T10:20:41;24.50;61.30
56103;DHT22;41970;48.774;9.280;2023-06-04T10:23:08;24.40;60.40
56103;DHT22;41970;48.774;9.280;2023-06-04T10:25:37;24.30;59.90
56103;DHT22;41970;48.774;9.280;2023-06-04T10:28:03;24.20;61.40
56103;DHT22;41970;48.774;9.280;2023-06-04T10:30:32;24.10;61.20
56103;DHT22;41970;48.774;9.280;2023-06-04T10:32:58;24.10;61.50
56103;DHT22;41970;48.774;9.280;2023-06-04T10:35:35;24.10;62.10
56103;DHT22;41970;48.774;9.280;2023-06-04T10:38:09;24.20;62.60
56103;DHT22;41970;48.774;9.280;2023-06-04T10:40:37;24.20;62.80
56103;DHT22;41970;48.774;9.280;2023-06-04T10:45:32;24.60;61.70
56103;DHT22;41970;48.774;9.280;2023-06-04T10:48:05;24.40;62.20
56103;DHT22;41970;48.774;9.280;2023-06-04T10:50:33;24.10;61.60
56103;DHT22;41970;48.774;9.280;2023-06-04T10:53:01;24.20;63.20
56103;DHT22;41970;48.774;9.280;2023-06-04T10:55:30;24.60;61.80
56103;DHT22;41970;48.774;9.280;2023-06-04T10:57:57;24.70;61.80
56103;DHT22;41970;48.774;9.280;2023-06-04T11:00:39;24.70;62.10
56103;DHT22;41970;48.774;9.280;2023-06-04T11:03:07;24.70;62.00
56103;DHT22;41970;48.774;9.280;2023-06-04T11:05:37;24.60;60.80
56103;DHT22;41970;48.774;9.280;2023-06-04T11:08:04;24.40;61.80
56103;DHT22;41970;48.774;9.280;2023-06-04T11:10:36;24.50;61.70
56103;DHT22;41970;48.774;9.280;2023-06-04T11:13:03;24.70;61.20
56103;DHT22;41970;48.774;9.280;2023-06-04T11:15:44;24.60;62.40
56103;DHT22;41970;48.774;9.280;2023-06-04T11:18:17;24.60;60.90
56103;DHT22;41970;48.774;9.280;2023-06-04T11:20:48;24.60;62.30
56103;DHT22;41970;48.774;9.280;2023-06-04T11:23:17;24.70;61.40
56103;DHT22;41970;48.774;9.280;2023-06-04T11:25:43;24.70;59.50
56103;DHT22;41970;48.774;9.280;2023-06-04T11:28:16;24.70;61.40
56103;DHT22;41970;48.774;9.280;2023-06-04T11:30:43;24.90;59.80
56103;DHT22;41970;48.774;9.280;2023-06-04T11:33:09;24.80;60.70
56103;DHT22;41970;48.774;9.280;2023-06-04T11:35:42;24.80;60.40
56103;DHT22;41970;48.774;9.280;2023-06-04T11:38:09;24.50;59.30
56103;DHT22;41970;48.774;9.280;2023-06-04T11:40:35;24.60;61.00
56103;DHT22;41970;48.774;9.280;2023-06-04T11:43:01;24.80;60.90
56103;DHT22;41970;48.774;9.280;2023-06-04T11:45:27;24.90;59.50
56103;DHT22;41970;48.774;9.280;2023-06-04T11:47:57;25.00;59.30
56103;DHT22;41970;48.774;9.280;2023-06-04T11:50:27;25.10;59.80
56103;DHT22;41970;48.774;9.280;2023-06-04T11:52:54;25.30;58.90
56103;DHT22;41970;48.774;9.280;2023-06-04T11:55:20;25.50;58.30
56103;DHT22;41970;48.774;9.280;2023-06-04T11:57:46;25.70;58.60
56103;DHT22;41970;48.774;9.280;2023-06-04T12:00:14;25.60;57.90
56103;DHT22;41970;48.774;9.280;2023-06-04T12:02:54;25.10;58.70
56103;DHT22;41970;48.774;9.280;2023-06-04T12:05:22;25.20;59.80
56103;DHT22;41970;48.774;9.280;2023-06-04T12:07:49;25.20;58.00
56103;DHT22;41970;48.774;9.280;2023-06-04T12:10:19;25.20;57.80
56103;DHT22;41970;48.774;9.280;2023-06-04T12:12:45;25.40;58.70
56103;DHT22;41970;48.774;9.280;2023-06-04T12:15:12;25.60;58.60
56103;DHT22;41970;48.774;9.280;2023-06-04T12:17:49;25.60;57.90
56103;DHT22;41970;48.774;9.280;2023-06-04T12:20:15;25.60;58.70
56103;DHT22;41970;48.774;9.280;2023-06-04T12:22:45;25.60;58.50
56103;DHT22;41970;48.774;9.280;2023-06-04T12:25:12;25.60;57.50
56103;DHT22;41970;48.774;9.280;2023-06-04T12:27:47;25.60;59.20
56103;DHT22;41970;48.774;9.280;2023-06-04T12:30:14;25.60;58.70
56103;DHT22;41970;48.774;9.280;2023-06-04T12:32:41;25.70;58.50
56103;DHT22;41970;48.774;9.280;2023-06-04T12:35:08;25.80;58.30
56103;DHT22;41970;48.774;9.280;2023-06-04T12:37:33;25.80;57.10
56103;DHT22;41970;48.774;9.280;2023-06-04T12:39:59;25.70;56.60
56103;DHT22;41970;48.774;9.280;2023-06-04T12:42:25;25.60;57.90
56103;DHT22;41970;48.774;9.280;2023-06-04T12:44:53;25.70;58.40
56103;DHT22;41970;48.774;9.280;2023-06-04T12:47:19;25.80;58.00
56103;DHT22;41970;48.774;9.280;2023-06-04T12:49:46;26.00;57.20
56103;DHT22;41970;48.774;9.280;2023-06-04T12:52:12;26.20;57.20
56103;DHT22;41970;48.774;9.280;2023-06-04T12:54:42;26.30;57.40
56103;DHT22;41970;48.774;9.280;2023-06-04T12:57:08;26.30;55.90
56103;DHT22;41970;48.774;9.280;2023-06-04T12:59:34;26.10;56.00
56103;DHT22;41970;48.774;9.280;2023-06-04T13:01:59;26.00;56.10
56103;DHT22;41970;48.774;9.280;2023-06-04T13:04:25;25.60;55.80
56103;DHT22;41970;48.774;9.280;2023-06-04T13:06:52;25.60;57.50
56103;DHT22;41970;48.774;9.280;2023-06-04T13:09:20;25.60;57.40
56103;DHT22;41970;48.774;9.280;2023-06-04T13:11:48;25.70;55.40
56103;DHT22;41970;48.774;9.280;2023-06-04T13:14:14;25.90;55.40
56103;DHT22;41970;48.774;9.280;2023-06-04T13:16:40;25.90;56.40
56103;DHT22;41970;48.774;9.280;2023-06-04T13:19:07;25.90;55.30
56103;DHT22;41970;48.774;9.280;2023-06-04T13:21:33;25.90;55.60
56103;DHT22;41970;48.774;9.280;2023-06-04T13:23:59;26.10;55.00
56103;DHT22;41970;48.774;9.280;2023-06-04T13:26:25;26.10;55.10
56103;DHT22;41970;48.774;9.280;2023-06-04T13:28:51;26.00;56.30
56103;DHT22;41970;48.774;9.280;2023-06-04T13:31:17;25.90;55.30
56103;DHT22;41970;48.774;9.280;2023-06-04T13:33:43;25.90;55.40
56103;DHT22;41970;48.774;9.280;2023-06-04T13:36:09;25.90;55.20
56103;DHT22;41970;48.774;9.280;2023-06-04T13:38:35;25.90;54.50
56103;DHT22;41970;48.774;9.280;2023-06-04T13:41:01;26.10;54.80
56103;DHT22;41970;48.774;9.280;2023-06-04T13:43:27;26.10;54.70
56103;DHT22;41970;48.774;9.280;2023-06-04T13:45:52;26.00;55.10
56103;DHT22;41970;48.774;9.280;2023-06-04T13:48:18;26.00;54.10
56103;DHT22;41970;48.774;9.280;2023-06-04T13:50:44;26.20;54.10
56103;DHT22;41970;48.774;9.280;2023-06-04T13:53:10;26.20;54.80
56103;DHT22;41970;48.774;9.280;2023-06-04T13:55:38;26.10;54.70
56103;DHT22;41970;48.774;9.280;2023-06-04T13:58:05;26.20;54.80
56103;DHT22;41970;48.774;9.280;2023-06-04T14:00:31;26.20;54.70
56103;DHT22;41970;48.774;9.280;2023-06-04T14:02:57;26.40;53.20
56103;DHT22;41970;48.774;9.280;2023-06-04T14:05:24;26.10;53.20
56103;DHT22;41970;48.774;9.280;2023-06-04T14:07:50;26.10;54.50
56103;DHT22;41970;48.774;9.280;2023-06-04T14:10:16;26.20;54.50
56103;DHT22;41970;48.774;9.280;2023-06-04T14:12:41;26.20;55.90
56103;DHT22;41970;48.774;9.280;2023-06-04T14:15:08;26.20;55.60
56103;DHT22;41970;48.774;9.280;2023-06-04T14:17:35;26.30;52.30
56103;DHT22;41970;48.774;9.280;2023-06-04T14:20:02;26.50;52.10
56103;DHT22;41970;48.774;9.280;2023-06-04T14:22:33;26.30;52.00
56103;DHT22;41970;48.774;9.280;2023-06-04T14:25:01;26.30;54.10
56103;DHT22;41970;48.774;9.280;2023-06-04T14:27:27;26.30;52.80
56103;DHT22;41970;48.774;9.280;2023-06-04T14:29:53;26.10;52.40
56103;DHT22;41970;48.774;9.280;2023-06-04T14:32:18;26.10;53.30
56103;DHT22;41970;48.774;9.280;2023-06-04T14:34:44;26.30;53.20
56103;DHT22;41970;48.774;9.280;2023-06-04T14:37:10;26.10;52.50
56103;DHT22;41970;48.774;9.280;2023-06-04T14:39:36;26.00;53.70
56103;DHT22;41970;48.774;9.280;2023-06-04T14:42:02;26.20;52.50
56103;DHT22;41970;48.774;9.280;2023-06-04T14:44:28;26.50;51.80
56103;DHT22;41970;48.774;9.280;2023-06-04T14:46:53;26.70;51.80
56103;DHT22;41970;48.774;9.280;2023-06-04T14:49:19;26.80;52.80
56103;DHT22;41970;48.774;9.280;2023-06-04T14:51:45;26.80;50.90
56103;DHT22;41970;48.774;9.280;2023-06-04T14:54:12;26.80;51.80
56103;DHT22;41970;48.774;9.280;2023-06-04T14:56:38;26.70;51.70
56103;DHT22;41970;48.774;9.280;2023-06-04T14:59:04;26.60;51.90
56103;DHT22;41970;48.774;9.280;2023-06-04T15:01:41;26.50;51.30
56103;DHT22;41970;48.774;9.280;2023-06-04T15:04:07;26.50;51.20
56103;DHT22;41970;48.774;9.280;2023-06-04T15:06:33;26.70;52.50
56103;DHT22;41970;48.774;9.280;2023-06-04T15:08:58;26.60;51.50
56103;DHT22;41970;48.774;9.280;2023-06-04T15:11:24;26.70;51.40
56103;DHT22;41970;48.774;9.280;2023-06-04T15:13:52;26.90;50.90
56103;DHT22;41970;48.774;9.280;2023-06-04T15:16:19;26.90;51.50
56103;DHT22;41970;48.774;9.280;2023-06-04T15:18:45;27.10;51.40
56103;DHT22;41970;48.774;9.280;2023-06-04T15:21:10;26.80;50.20
56103;DHT22;41970;48.774;9.280;2023-06-04T15:23:36;26.10;50.80
56103;DHT22;41970;48.774;9.280;2023-06-04T15:26:02;26.00;52.20
56103;DHT22;41970;48.774;9.280;2023-06-04T15:28:28;26.00;51.90
56103;DHT22;41970;48.774;9.280;2023-06-04T15:30:53;25.90;51.80
56103;DHT22;41970;48.774;9.280;2023-06-04T15:33:19;25.90;51.70
56103;DHT22;41970;48.774;9.280;2023-06-04T15:35:45;25.90;51.40
56103;DHT22;41970;48.774;9.280;2023-06-04T15:38:11;25.60;52.50
56103;DHT22;41970;48.774;9.280;2023-06-04T15:40:37;25.80;52.90
56103;DHT22;41970;48.774;9.280;2023-06-04T15:43:02;26.00;52.30